createdAt,value
2022-08-07T00:00:52.680Z,76.27
2022-08-07T00:03:22.238Z,76.24
2022-08-07T00:05:54.219Z,76.08
2022-08-07T00:08:22.487Z,76.18
2022-08-07T00:10:57.642Z,76.47
2022-08-07T00:13:26.938Z,76.72
2022-08-07T00:15:55.557Z,76.86
2022-08-07T00:18:25.400Z,76.41
2022-08-07T00:20:56.776Z,76.13
2022-08-07T00:23:28.308Z,76.14
2022-08-07T00:26:01.492Z,76.75
2022-08-07T00:28:34.369Z,77.06
2022-08-07T00:31:06.424Z,77.20
2022-08-07T00:33:41.816Z,77.36
2022-08-07T00:36:10.526Z,77.09
2022-08-07T00:38:40.133Z,76.87
2022-08-07T00:41:09.940Z,77.04
2022-08-07T00:44:00.315Z,77.08
2022-08-07T00:46:33.177Z,76.78
2022-08-07T00:49:02.599Z,77.19
2022-08-07T00:51:57.097Z,77.10
2022-08-07T00:54:20.055Z,77.22
2022-08-07T00:56:49.585Z,76.93
2022-08-07T00:59:20.331Z,76.85
2022-08-07T01:02:08.920Z,76.89
2022-08-07T01:04:43.267Z,76.83
2022-08-07T01:07:13.864Z,76.69
2022-08-07T01:10:06.066Z,76.74
2022-08-07T01:12:31.903Z,76.71
2022-08-07T01:15:04.401Z,77.01
2022-08-07T01:17:34.091Z,77.09
2022-08-07T01:20:09.974Z,77.09
2022-08-07T01:22:46.886Z,77.20
2022-08-07T01:25:53.997Z,77.11
2022-08-07T01:28:18.484Z,76.64
2022-08-07T01:30:51.333Z,77.16
2022-08-07T01:33:21.215Z,77.21
2022-08-07T01:35:53.710Z,76.87
2022-08-07T01:38:25.988Z,77.50
2022-08-07T01:41:02.640Z,77.88
2022-08-07T01:43:38.175Z,77.83
2022-08-07T01:46:12.331Z,78.04
2022-08-07T01:48:46.733Z,77.78
2022-08-07T01:52:01.342Z,77.87
2022-08-07T01:54:33.326Z,77.98
2022-08-07T01:57:30.910Z,77.55
2022-08-07T02:00:04.341Z,77.91
2022-08-07T02:03:18.102Z,78.32
2022-08-07T02:05:47.865Z,77.99
2022-08-07T02:08:29.232Z,77.50
2022-08-07T02:11:00.134Z,77.86
2022-08-07T02:14:00.708Z,78.92
2022-08-07T02:16:28.537Z,78.97
2022-08-07T02:19:05.749Z,78.74
2022-08-07T02:21:56.604Z,78.61
2022-08-07T02:24:29.279Z,78.99
2022-08-07T02:27:01.349Z,79.17
2022-08-07T02:29:32.738Z,79.19
2022-08-07T02:32:05.060Z,79.18
2022-08-07T02:34:34.528Z,78.94
2022-08-07T02:37:08.380Z,79.11
2022-08-07T02:40:29.493Z,79.20
2022-08-07T02:42:34.536Z,79.17
2022-08-07T02:45:59.446Z,78.98
2022-08-07T02:47:59.487Z,78.96
2022-08-07T02:50:33.259Z,78.76
2022-08-07T02:53:07.037Z,78.62
2022-08-07T02:56:03.536Z,78.48
2022-08-07T02:58:36.356Z,78.22
2022-08-07T03:01:16.088Z,78.07
2022-08-07T03:03:50.869Z,77.87
2022-08-07T03:06:34.538Z,77.86
2022-08-07T03:09:04.789Z,77.95
2022-08-07T03:11:38.947Z,77.56
2022-08-07T03:14:22.451Z,77.76
2022-08-07T03:16:52.367Z,77.93
2022-08-07T03:19:22.015Z,77.85
2022-08-07T03:21:52.188Z,77.98
2022-08-07T03:24:26.890Z,77.57
2022-08-07T03:27:01.646Z,77.66
2022-08-07T03:29:46.125Z,77.99
2022-08-07T03:32:22.761Z,78.10
2022-08-07T03:35:01.103Z,78.02
2022-08-07T03:37:53.864Z,78.02
2022-08-07T03:40:30.870Z,78.24
2022-08-07T03:43:00.965Z,78.28
2022-08-07T03:45:31.570Z,78.36
2022-08-07T03:48:10.050Z,78.45
2022-08-07T03:50:52.040Z,78.29
2022-08-07T03:54:00.761Z,78.21
2022-08-07T03:56:32.637Z,78.10
2022-08-07T03:59:08.326Z,77.89
2022-08-07T04:01:43.262Z,77.84
2022-08-07T04:04:17.369Z,78.19
2022-08-07T04:06:50.927Z,78.36
2022-08-07T04:09:23.462Z,77.90
2022-08-07T04:12:20.676Z,78.19
2022-08-07T04:14:43.912Z,79.40
2022-08-07T04:17:21.255Z,80.20
2022-08-07T04:19:55.305Z,79.80
2022-08-07T04:22:30.086Z,78.99
2022-08-07T04:25:08.851Z,77.08
2022-08-07T04:27:44.419Z,74.75
2022-08-07T04:30:21.535Z,74.06
2022-08-07T04:33:13.910Z,74.27
2022-08-07T04:35:50.420Z,72.56
2022-08-07T04:38:21.436Z,69.29
2022-08-07T04:40:51.887Z,67.92
2022-08-07T04:43:28.415Z,67.44
2022-08-07T04:46:29.560Z,68.03
2022-08-07T04:49:14.914Z,69.37
2022-08-07T04:51:59.993Z,68.51
2022-08-07T04:54:34.320Z,66.55
2022-08-07T04:58:09.596Z,64.69
2022-08-07T05:00:14.256Z,62.79
2022-08-07T05:02:54.425Z,61.03
2022-08-07T05:05:53.314Z,59.48
2022-08-07T05:09:00.195Z,57.92
2022-08-07T05:11:24.557Z,56.17
2022-08-07T05:14:54.218Z,55.82
2022-08-07T05:16:52.880Z,56.14
2022-08-07T05:19:43.985Z,55.09
2022-08-07T05:22:26.753Z,54.49
2022-08-07T05:24:59.593Z,53.90
2022-08-07T05:28:03.087Z,52.98
2022-08-07T05:30:30.280Z,51.71
2022-08-07T05:33:03.644Z,49.81
2022-08-07T05:35:41.683Z,48.76
2022-08-07T05:38:11.895Z,47.79
2022-08-07T05:40:50.306Z,47.16
2022-08-07T05:43:49.761Z,48.19
2022-08-07T05:46:09.990Z,47.94
2022-08-07T05:48:59.088Z,47.48
2022-08-07T05:51:31.513Z,43.90
2022-08-07T05:54:12.565Z,45.18
2022-08-07T05:56:51.692Z,44.48
2022-08-07T05:59:20.992Z,42.95
2022-08-07T06:01:52.027Z,44.13
2022-08-07T06:04:22.055Z,45.35
2022-08-07T06:07:03.909Z,46.64
2022-08-07T06:10:04.586Z,47.44
2022-08-07T06:12:27.799Z,48.37
2022-08-07T06:15:05.227Z,49.01
2022-08-07T06:17:38.031Z,49.55
2022-08-07T06:20:12.544Z,50.05
2022-08-07T06:23:02.161Z,50.66
2022-08-07T06:25:54.390Z,51.02
2022-08-07T06:28:27.475Z,50.18
2022-08-07T06:30:58.248Z,49.06
2022-08-07T06:33:29.696Z,47.61
2022-08-07T06:36:06.620Z,45.47
2022-08-07T06:38:58.469Z,45.72
2022-08-07T06:42:02.567Z,46.01
2022-08-07T06:44:40.068Z,44.49
2022-08-07T06:47:10.433Z,44.15
2022-08-07T06:49:50.795Z,43.75
2022-08-07T06:52:31.896Z,44.74
2022-08-07T06:55:31.421Z,45.71
2022-08-07T06:58:01.072Z,46.73
2022-08-07T07:00:34.468Z,48.39
2022-08-07T07:03:08.755Z,49.67
2022-08-07T07:06:05.394Z,50.80
2022-08-07T07:08:29.964Z,52.03
2022-08-07T07:11:13.975Z,53.17
2022-08-07T07:13:57.384Z,54.09
2022-08-07T07:16:45.427Z,54.83
2022-08-07T07:19:55.405Z,55.72
2022-08-07T07:22:33.926Z,56.60
2022-08-07T07:25:13.806Z,57.45
2022-08-07T07:27:58.549Z,57.28
2022-08-07T07:30:38.436Z,57.59
2022-08-07T07:33:12.351Z,58.60
2022-08-07T07:36:04.540Z,58.49
2022-08-07T07:38:33.194Z,57.92
2022-08-07T07:41:08.766Z,58.35
2022-08-07T07:44:14.130Z,57.73
2022-08-07T07:46:37.173Z,57.90
2022-08-07T07:50:32.807Z,58.31
2022-08-07T07:52:16.022Z,59.12
2022-08-07T07:54:50.885Z,59.80
2022-08-07T07:57:43.612Z,59.85
2022-08-07T08:00:20.707Z,59.89
2022-08-07T08:03:04.768Z,60.91
2022-08-07T08:05:42.802Z,61.53
2022-08-07T08:08:34.508Z,62.24
2022-08-07T08:11:09.218Z,62.13
2022-08-07T08:13:54.007Z,61.75
2022-08-07T08:16:30.059Z,61.57
2022-08-07T08:20:17.220Z,61.81
2022-08-07T08:22:32.616Z,61.50
2022-08-07T08:25:26.792Z,61.69
2022-08-07T08:28:17.022Z,61.45
2022-08-07T08:30:57.354Z,61.14
2022-08-07T08:33:29.078Z,60.48
2022-08-07T08:36:03.106Z,60.88
2022-08-07T08:38:38.605Z,60.66
2022-08-07T08:41:18.266Z,60.18
2022-08-07T08:43:59.390Z,60.10
2022-08-07T08:46:48.745Z,60.26
2022-08-07T08:49:33.636Z,58.85
2022-08-07T08:52:19.391Z,58.81
2022-08-07T08:54:55.116Z,58.69
2022-08-07T08:57:34.672Z,58.24
2022-08-07T09:00:07.987Z,58.14
2022-08-07T09:02:49.567Z,58.68
2022-08-07T09:05:38.139Z,59.02
2022-08-07T09:08:17.867Z,58.48
2022-08-07T09:11:03.623Z,58.47
2022-08-07T09:13:38.087Z,56.99
2022-08-07T09:16:22.441Z,55.95
2022-08-07T09:19:51.065Z,56.10
2022-08-07T09:24:31.093Z,55.96
2022-08-07T09:25:24.912Z,54.81
2022-08-07T09:28:02.867Z,54.15
2022-08-07T09:30:47.627Z,53.77
2022-08-07T09:33:52.588Z,53.30
2022-08-07T09:36:33.581Z,51.70
2022-08-07T09:39:27.522Z,51.11
2022-08-07T09:42:17.076Z,49.07
2022-08-07T09:47:24.493Z,49.37
2022-08-07T09:48:04.951Z,50.85
2022-08-07T09:50:51.425Z,50.87
2022-08-07T09:53:22.650Z,51.10
2022-08-07T09:56:08.860Z,50.51
2022-08-07T09:59:00.759Z,49.64
2022-08-07T10:02:00.889Z,49.55
2022-08-07T10:04:47.573Z,50.61
2022-08-07T10:07:52.970Z,50.43
2022-08-07T10:11:00.275Z,51.26
2022-08-07T10:14:00.145Z,49.45
2022-08-07T10:16:38.569Z,48.62
2022-08-07T10:19:37.797Z,48.61
2022-08-07T10:22:33.297Z,48.24
2022-08-07T10:25:22.669Z,48.05
2022-08-07T10:28:29.266Z,47.83
2022-08-07T10:31:10.970Z,48.44
2022-08-07T10:34:05.806Z,47.36
2022-08-07T10:37:12.514Z,47.98
2022-08-07T10:40:06.003Z,48.79
2022-08-07T10:42:41.325Z,48.79
2022-08-07T10:45:44.056Z,48.64
2022-08-07T10:48:35.785Z,48.50
2022-08-07T10:51:16.949Z,48.54
2022-08-07T10:54:10.685Z,47.63
2022-08-07T10:57:06.291Z,46.64
2022-08-07T10:59:47.726Z,46.38
2022-08-07T11:02:33.545Z,46.45
2022-08-07T11:05:49.136Z,45.70
2022-08-07T11:08:30.312Z,46.22
2022-08-07T11:11:05.579Z,45.81
2022-08-07T11:14:42.766Z,44.22
2022-08-07T11:16:31.059Z,44.62
2022-08-07T11:19:07.098Z,45.46
2022-08-07T11:21:49.888Z,45.94
2022-08-07T11:24:23.190Z,46.04
2022-08-07T11:26:57.054Z,45.97
2022-08-07T11:29:41.926Z,45.90
2022-08-07T11:32:25.402Z,46.11
2022-08-07T11:34:58.386Z,46.87
2022-08-07T11:37:58.298Z,47.07
2022-08-07T11:40:49.896Z,47.27
2022-08-07T11:43:29.756Z,47.30
2022-08-07T11:46:21.798Z,46.54
2022-08-07T11:49:50.855Z,46.42
2022-08-07T11:52:12.957Z,44.83
2022-08-07T11:55:18.626Z,44.52
2022-08-07T11:58:13.255Z,42.49
2022-08-07T12:01:02.595Z,42.25
2022-08-07T12:03:57.372Z,41.54
2022-08-07T12:07:00.322Z,42.45
2022-08-07T12:09:37.182Z,42.98
2022-08-07T12:12:11.625Z,42.44
2022-08-07T12:14:55.692Z,42.27
2022-08-07T12:17:59.386Z,42.58
2022-08-07T12:20:34.771Z,42.25
2022-08-07T12:24:05.478Z,41.89
2022-08-07T12:26:29.299Z,42.21
2022-08-07T12:29:07.030Z,42.23
2022-08-07T12:32:02.309Z,43.00
2022-08-07T12:34:31.409Z,42.37
2022-08-07T12:37:08.814Z,42.50
2022-08-07T12:39:51.368Z,42.18
2022-08-07T12:42:27.110Z,41.97
2022-08-07T12:44:58.333Z,40.60
2022-08-07T12:47:38.254Z,41.50
2022-08-07T12:50:39.396Z,41.81
2022-08-07T12:53:17.461Z,41.87
2022-08-07T12:56:03.303Z,41.22
2022-08-07T12:58:39.704Z,41.22
2022-08-07T13:01:22.745Z,40.97
2022-08-07T13:04:32.600Z,40.23
2022-08-07T13:08:12.479Z,40.47
2022-08-07T13:10:44.806Z,39.74
2022-08-07T13:13:48.247Z,39.42
2022-08-07T13:16:29.033Z,39.38
2022-08-07T13:19:18.237Z,39.70
2022-08-07T13:22:04.128Z,40.02
2022-08-07T13:24:53.902Z,40.35
2022-08-07T13:28:05.707Z,40.50
2022-08-07T13:30:19.714Z,39.22
2022-08-07T13:33:16.383Z,39.16
2022-08-07T13:36:05.404Z,38.98
2022-08-07T13:38:42.100Z,38.29
2022-08-07T13:41:21.039Z,38.60
2022-08-07T13:43:55.944Z,38.66
2022-08-07T13:46:33.402Z,37.63
2022-08-07T13:49:04.950Z,38.06
2022-08-07T13:52:05.188Z,38.72
2022-08-07T13:54:33.575Z,39.28
2022-08-07T13:57:08.665Z,39.86
2022-08-07T13:59:44.599Z,39.03
2022-08-07T14:02:19.086Z,39.76
2022-08-07T14:05:04.575Z,38.88
2022-08-07T14:07:59.304Z,38.96
2022-08-07T14:10:42.242Z,38.88
2022-08-07T14:13:16.207Z,39.59
2022-08-07T14:15:53.071Z,39.32
2022-08-07T14:18:31.970Z,38.72
2022-08-07T14:21:11.639Z,39.05
2022-08-07T14:24:00.591Z,39.08
2022-08-07T14:26:35.808Z,38.22
2022-08-07T14:30:05.442Z,38.31
2022-08-07T14:32:01.076Z,37.87
2022-08-07T14:34:31.426Z,38.66
2022-08-07T14:37:03.291Z,38.91
2022-08-07T14:40:17.392Z,39.17
2022-08-07T14:42:31.473Z,39.23
2022-08-07T14:45:06.431Z,38.95
2022-08-07T14:47:53.066Z,39.69
2022-08-07T14:50:29.145Z,39.41
2022-08-07T14:53:09.647Z,39.71
2022-08-07T14:58:33.512Z,40.04
2022-08-07T15:01:22.042Z,39.62
2022-08-07T15:06:47.970Z,39.33
2022-08-07T15:09:58.384Z,39.86
2022-08-07T15:12:10.657Z,39.31
2022-08-07T15:14:58.495Z,39.25
2022-08-07T15:17:33.112Z,39.00
2022-08-07T15:20:32.495Z,38.81
2022-08-07T15:23:22.187Z,39.02
2022-08-07T15:34:50.806Z,39.63
2022-08-07T15:38:04.713Z,39.63
2022-08-07T15:40:34.091Z,39.64
2022-08-07T15:43:53.343Z,39.46
2022-08-07T15:46:31.659Z,39.40
2022-08-07T15:49:12.572Z,39.81
2022-08-07T15:54:34.549Z,39.04
2022-08-07T15:57:40.070Z,40.05
2022-08-07T16:00:34.057Z,39.87
2022-08-07T16:03:21.774Z,39.94
2022-08-07T16:05:58.832Z,40.22
2022-08-07T16:08:37.789Z,40.17
2022-08-07T16:11:17.458Z,40.70
2022-08-07T16:14:04.904Z,40.42
2022-08-07T16:16:49.819Z,40.36
2022-08-07T16:19:42.541Z,40.72
2022-08-07T16:22:55.149Z,40.65
2022-08-07T16:25:54.251Z,41.32
2022-08-07T16:30:06.514Z,41.64
2022-08-07T16:31:51.394Z,41.55
2022-08-07T16:34:36.658Z,41.73
2022-08-07T16:38:06.253Z,41.42
2022-08-07T16:40:57.232Z,42.18
2022-08-07T16:44:03.909Z,42.65
2022-08-07T16:47:27.330Z,42.76
2022-08-07T16:50:35.628Z,43.11
2022-08-07T16:54:02.073Z,42.95
2022-08-07T16:56:25.817Z,43.30
2022-08-07T16:59:10.937Z,43.71
2022-08-07T17:01:56.643Z,43.93
2022-08-07T17:04:36.829Z,44.07
2022-08-07T17:07:28.414Z,44.29
2022-08-07T17:10:30.207Z,44.05
2022-08-07T17:13:41.408Z,43.96
2022-08-07T17:16:21.827Z,43.81
2022-08-07T17:19:03.455Z,44.03
2022-08-07T17:21:50.679Z,44.17
2022-08-07T17:24:55.373Z,44.46
2022-08-07T17:27:50.690Z,44.48
2022-08-07T17:30:26.490Z,44.60
2022-08-07T17:34:09.066Z,44.72
2022-08-07T17:36:13.473Z,44.96
2022-08-07T17:39:00.328Z,44.97
2022-08-07T17:42:04.954Z,45.18
2022-08-07T17:44:45.480Z,45.42
2022-08-07T17:47:38.434Z,45.77
2022-08-07T17:50:19.265Z,45.93
2022-08-07T17:52:59.580Z,46.12
2022-08-07T17:55:59.968Z,46.49
2022-08-07T17:58:46.292Z,46.50
2022-08-07T18:01:34.737Z,46.87
2022-08-07T18:04:16.786Z,47.09
2022-08-07T18:06:57.953Z,47.27
2022-08-07T18:10:05.293Z,47.52
2022-08-07T18:13:06.499Z,47.77
2022-08-07T18:15:58.382Z,48.06
2022-08-07T18:18:45.045Z,48.21
2022-08-07T18:21:53.620Z,48.45
2022-08-07T18:24:33.585Z,48.57
2022-08-07T18:27:38.739Z,48.77
2022-08-07T18:30:31.186Z,49.08
2022-08-07T18:33:36.168Z,49.23
2022-08-07T18:36:16.577Z,49.40
2022-08-07T18:40:05.128Z,49.57
2022-08-07T18:42:12.862Z,49.87
2022-08-07T18:45:44.468Z,50.13
2022-08-07T18:48:01.357Z,50.47
2022-08-07T18:50:48.024Z,50.87
2022-08-07T18:53:36.907Z,51.45
2022-08-07T18:56:19.444Z,52.05
2022-08-07T19:02:33.986Z,52.19
2022-08-07T19:05:15.879Z,52.40
2022-08-07T19:07:57.711Z,52.47
2022-08-07T19:10:51.380Z,53.06
2022-08-07T19:13:26.525Z,53.79
2022-08-07T19:17:04.638Z,54.52
2022-08-07T19:19:00.048Z,55.00
2022-08-07T19:21:47.484Z,54.83
2022-08-07T19:24:36.123Z,55.43
2022-08-07T19:30:55.673Z,55.71
2022-08-07T19:31:00.065Z,55.64
2022-08-07T19:32:59.762Z,54.78
2022-08-07T19:35:33.083Z,54.89
2022-08-07T19:38:16.640Z,54.71
2022-08-07T19:40:50.714Z,54.69
2022-08-07T19:43:48.592Z,55.50
2022-08-07T19:46:19.082Z,56.48
2022-08-07T19:48:53.813Z,56.81
2022-08-07T19:51:51.830Z,56.94
2022-08-07T19:54:31.937Z,56.33
2022-08-07T19:58:00.429Z,56.42
2022-08-07T20:00:02.016Z,56.21
2022-08-07T20:02:39.016Z,56.12
2022-08-07T20:05:28.659Z,55.87
2022-08-07T20:08:01.787Z,55.71
2022-08-07T20:10:55.091Z,55.67
2022-08-07T20:13:32.156Z,55.40
2022-08-07T20:16:02.788Z,55.36
2022-08-07T20:18:34.318Z,55.32
2022-08-07T20:21:03.577Z,55.41
2022-08-07T20:23:54.311Z,55.37
2022-08-07T20:26:32.707Z,55.33
2022-08-07T20:29:46.743Z,55.37
2022-08-07T20:32:11.451Z,55.32
2022-08-07T20:34:54.328Z,55.33
2022-08-07T20:37:29.308Z,55.54
2022-08-07T20:40:03.379Z,55.48
2022-08-07T20:42:37.046Z,55.53
2022-08-07T20:45:32.789Z,55.52
2022-08-07T20:47:58.454Z,55.58
2022-08-07T20:50:30.400Z,55.67
2022-08-07T20:52:59.865Z,55.60
2022-08-07T20:55:32.300Z,55.69
2022-08-07T20:58:12.123Z,55.60
2022-08-07T21:01:03.839Z,55.67
2022-08-07T21:03:35.866Z,55.55
2022-08-07T21:06:22.282Z,55.58
2022-08-07T21:09:00.720Z,55.52
2022-08-07T21:11:46.029Z,55.87
2022-08-07T21:14:33.080Z,56.16
2022-08-07T21:18:06.173Z,56.55
2022-08-07T21:20:05.232Z,56.13
2022-08-07T21:22:39.391Z,55.98
2022-08-07T21:25:20.751Z,56.05
2022-08-07T21:28:04.157Z,55.95
2022-08-07T21:30:43.200Z,55.92
2022-08-07T21:33:22.076Z,55.87
2022-08-07T21:36:06.333Z,55.81
2022-08-07T21:38:50.108Z,55.82
2022-08-07T21:41:24.620Z,55.99
2022-08-07T21:44:05.706Z,55.83
2022-08-07T21:46:40.853Z,55.88
2022-08-07T21:49:14.776Z,55.95
2022-08-07T21:52:01.995Z,55.89
2022-08-07T21:54:46.194Z,55.83
2022-08-07T21:57:39.636Z,55.76
2022-08-07T22:00:23.057Z,55.82
2022-08-07T22:03:05.552Z,55.86
2022-08-07T22:05:50.268Z,55.92
2022-08-07T22:08:33.270Z,55.88
2022-08-07T22:11:05.586Z,55.96
2022-08-07T22:13:52.074Z,55.83
2022-08-07T22:16:40.038Z,55.72
2022-08-07T22:19:23.628Z,55.99
2022-08-07T22:22:21.592Z,55.99
2022-08-07T22:25:05.241Z,56.14
2022-08-07T22:28:06.382Z,56.12
2022-08-07T22:30:36.222Z,56.07
2022-08-07T22:33:09.715Z,56.13
2022-08-07T22:35:43.506Z,56.22
2022-08-07T22:38:25.668Z,56.34
2022-08-07T22:40:59.911Z,56.37
2022-08-07T22:43:36.306Z,56.48
2022-08-07T22:47:02.441Z,57.02
2022-08-07T22:49:54.148Z,58.35
2022-08-07T22:52:43.401Z,59.01
2022-08-07T22:55:30.888Z,58.84
2022-08-07T22:58:27.871Z,59.04
2022-08-07T23:01:15.380Z,59.08
2022-08-07T23:04:00.199Z,59.21
2022-08-07T23:06:51.488Z,59.22
2022-08-07T23:10:05.526Z,59.16
2022-08-07T23:12:34.400Z,58.85
2022-08-07T23:15:12.359Z,58.57
2022-08-07T23:18:13.207Z,58.50
2022-08-07T23:21:02.896Z,58.34
2022-08-07T23:24:06.120Z,58.48
2022-08-07T23:26:54.995Z,58.51
2022-08-07T23:30:38.283Z,58.56
2022-08-07T23:34:34.420Z,58.40
2022-08-07T23:35:52.927Z,58.53
2022-08-07T23:38:36.526Z,58.58
2022-08-07T23:41:24.475Z,58.62
2022-08-07T23:44:31.668Z,58.69
2022-08-07T23:47:17.429Z,58.77
2022-08-07T23:50:23.576Z,58.91
2022-08-07T23:53:06.462Z,59.23
2022-08-07T23:55:47.139Z,59.70
2022-08-07T23:58:29.576Z,60.24
